sensor_id;sensor_type;location;lat;lon;timestamp;pressure;altitude;pressure_sealevel;temperature;humidity
76611;BME280;65503;48.534;9.062;2023-04-24T00:01:32;95992.56;;;13.92;56.40
76611;BME280;65503;48.534;9.062;2023-04-24T00:04:00;95977.69;;;14.01;56.70
76611;BME280;65503;48.534;9.062;2023-04-24T00:06:28;95975.16;;;13.86;57.02
76611;BME280;65503;48.534;9.062;2023-04-24T00:09:00;95990.50;;;13.79;57.45
76611;BME280;65503;48.534;9.062;2023-04-24T00:11:27;95998.25;;;13.71;57.88
76611;BME280;65503;48.534;9.062;2023-04-24T00:13:53;96001.91;;;13.75;58.11
76611;BME280;65503;48.534;9.062;2023-04-24T00:16:20;96011.97;;;13.78;57.55
76611;BME280;65503;48.534;9.062;2023-04-24T00:18:46;96012.72;;;13.83;57.66
76611;BME280;65503;48.534;9.062;2023-04-24T00:21:14;96016.94;;;13.84;57.60
76611;BME280;65503;48.534;9.062;2023-04-24T00:23:42;96016.44;;;13.82;57.92
76611;BME280;65503;48.534;9.062;2023-04-24T00:26:08;96014.53;;;13.88;57.73
76611;BME280;65503;48.534;9.062;2023-04-24T00:28:35;96012.69;;;13.88;58.22
76611;BME280;65503;48.534;9.062;2023-04-24T00:31:02;96007.44;;;13.83;57.37
76611;BME280;65503;48.534;9.062;2023-04-24T00:33:28;96022.28;;;13.74;58.10
76611;BME280;65503;48.534;9.062;2023-04-24T00:35:54;96003.78;;;13.74;58.69
76611;BME280;65503;48.534;9.062;2023-04-24T00:38:21;95995.81;;;13.79;58.69
76611;BME280;65503;48.534;9.062;2023-04-24T00:40:48;96006.09;;;13.86;58.25
76611;BME280;65503;48.534;9.062;2023-04-24T00:43:16;96002.66;;;13.85;58.26
76611;BME280;65503;48.534;9.062;2023-04-24T00:45:43;96005.78;;;13.92;58.06
76611;BME280;65503;48.534;9.062;2023-04-24T00:48:10;96000.00;;;13.85;57.74
76611;BME280;65503;48.534;9.062;2023-04-24T00:50:38;95992.06;;;13.85;57.78
76611;BME280;65503;48.534;9.062;2023-04-24T00:53:05;95977.75;;;13.91;57.98
76611;BME280;65503;48.534;9.062;2023-04-24T00:55:31;95986.22;;;13.93;58.03
76611;BME280;65503;48.534;9.062;2023-04-24T00:57:58;95985.63;;;14.01;57.96
76611;BME280;65503;48.534;9.062;2023-04-24T01:00:25;95988.25;;;14.01;58.22
76611;BME280;65503;48.534;9.062;2023-04-24T01:02:51;95987.94;;;14.08;58.38
76611;BME280;65503;48.534;9.062;2023-04-24T01:05:18;95985.66;;;13.96;59.52
76611;BME280;65503;48.534;9.062;2023-04-24T01:07:45;95983.59;;;13.88;60.54
76611;BME280;65503;48.534;9.062;2023-04-24T01:10:13;95988.41;;;13.81;62.23
76611;BME280;65503;48.534;9.062;2023-04-24T01:12:41;95992.72;;;13.62;63.34
76611;BME280;65503;48.534;9.062;2023-04-24T01:15:08;95993.38;;;13.34;64.63
76611;BME280;65503;48.534;9.062;2023-04-24T01:17:34;95989.75;;;13.04;65.92
76611;BME280;65503;48.534;9.062;2023-04-24T01:20:01;95986.66;;;12.82;67.43
76611;BME280;65503;48.534;9.062;2023-04-24T01:22:33;95978.75;;;12.72;67.93
76611;BME280;65503;48.534;9.062;2023-04-24T01:25:01;95974.03;;;12.54;68.31
76611;BME280;65503;48.534;9.062;2023-04-24T01:27:27;95966.38;;;12.42;68.74
76611;BME280;65503;48.534;9.062;2023-04-24T01:29:54;95956.13;;;12.35;69.20
76611;BME280;65503;48.534;9.062;2023-04-24T01:32:20;95963.50;;;12.38;69.44
76611;BME280;65503;48.534;9.062;2023-04-24T01:34:48;95958.47;;;12.52;69.81
76611;BME280;65503;48.534;9.062;2023-04-24T01:37:14;95957.16;;;12.39;70.31
76611;BME280;65503;48.534;9.062;2023-04-24T01:39:42;95960.34;;;12.41;70.44
76611;BME280;65503;48.534;9.062;2023-04-24T01:42:09;95958.19;;;12.49;70.33
76611;BME280;65503;48.534;9.062;2023-04-24T01:44:36;95956.63;;;12.53;70.54
76611;BME280;65503;48.534;9.062;2023-04-24T01:47:03;95946.06;;;12.53;70.39
76611;BME280;65503;48.534;9.062;2023-04-24T01:49:29;95953.44;;;12.61;70.14
76611;BME280;65503;48.534;9.062;2023-04-24T01:51:56;95950.25;;;12.69;69.89
76611;BME280;65503;48.534;9.062;2023-04-24T01:54:22;95961.06;;;12.77;69.97
76611;BME280;65503;48.534;9.062;2023-04-24T01:56:49;95960.25;;;12.82;69.16
76611;BME280;65503;48.534;9.062;2023-04-24T01:59:16;95975.03;;;12.83;69.94
76611;BME280;65503;48.534;9.062;2023-04-24T02:01:43;95975.56;;;12.85;69.96
76611;BME280;65503;48.534;9.062;2023-04-24T02:04:09;95973.97;;;12.89;69.82
76611;BME280;65503;48.534;9.062;2023-04-24T02:06:36;95978.72;;;12.92;70.25
76611;BME280;65503;48.534;9.062;2023-04-24T02:09:03;95974.50;;;12.86;70.68
76611;BME280;65503;48.534;9.062;2023-04-24T02:11:29;95972.38;;;12.83;70.40
76611;BME280;65503;48.534;9.062;2023-04-24T02:13:56;95984.53;;;12.84;70.55
76611;BME280;65503;48.534;9.062;2023-04-24T02:16:23;95971.88;;;12.86;70.78
76611;BME280;65503;48.534;9.062;2023-04-24T02:18:49;95969.50;;;12.84;70.85
76611;BME280;65503;48.534;9.062;2023-04-24T02:21:16;95966.59;;;12.86;70.95
76611;BME280;65503;48.534;9.062;2023-04-24T02:23:43;95971.34;;;12.84;70.86
76611;BME280;65503;48.534;9.062;2023-04-24T02:26:09;95972.94;;;12.80;71.05
76611;BME280;65503;48.534;9.062;2023-04-24T02:28:36;95965.03;;;12.75;71.25
76611;BME280;65503;48.534;9.062;2023-04-24T02:31:02;95966.09;;;12.74;71.40
76611;BME280;65503;48.534;9.062;2023-04-24T02:33:29;95969.25;;;12.71;71.40
76611;BME280;65503;48.534;9.062;2023-04-24T02:35:56;95961.34;;;12.66;71.34
76611;BME280;65503;48.534;9.062;2023-04-24T02:38:22;95966.38;;;12.62;71.12
76611;BME280;65503;48.534;9.062;2023-04-24T02:40:48;95964.00;;;12.56;71.28
76611;BME280;65503;48.534;9.062;2023-04-24T02:43:15;95972.47;;;12.53;70.88
76611;BME280;65503;48.534;9.062;2023-04-24T02:45:41;95971.38;;;12.59;70.28
76611;BME280;65503;48.534;9.062;2023-04-24T02:48:08;95962.94;;;12.57;69.42
76611;BME280;65503;48.534;9.062;2023-04-24T02:50:34;95967.69;;;12.55;69.61
76611;BME280;65503;48.534;9.062;2023-04-24T02:53:01;95966.63;;;12.56;69.30
76611;BME280;65503;48.534;9.062;2023-04-24T02:55:27;95974.31;;;12.57;68.62
76611;BME280;65503;48.534;9.062;2023-04-24T02:57:54;95980.38;;;12.37;70.10
76611;BME280;65503;48.534;9.062;2023-04-24T03:00:21;95975.13;;;12.07;71.08
76611;BME280;65503;48.534;9.062;2023-04-24T03:02:47;95970.34;;;12.14;71.57
76611;BME280;65503;48.534;9.062;2023-04-24T03:05:14;95965.63;;;12.16;71.60
76611;BME280;65503;48.534;9.062;2023-04-24T03:07:40;95975.66;;;12.24;71.53
76611;BME280;65503;48.534;9.062;2023-04-24T03:10:07;95970.88;;;12.21;71.76
76611;BME280;65503;48.534;9.062;2023-04-24T03:12:34;95967.72;;;12.09;71.95
76611;BME280;65503;48.534;9.062;2023-04-24T03:15:00;95966.16;;;12.18;72.09
76611;BME280;65503;48.534;9.062;2023-04-24T03:17:27;95969.56;;;12.14;72.12
76611;BME280;65503;48.534;9.062;2023-04-24T03:19:53;95966.16;;;12.18;72.19
76611;BME280;65503;48.534;9.062;2023-04-24T03:22:19;95958.25;;;12.18;72.50
76611;BME280;65503;48.534;9.062;2023-04-24T03:24:46;95949.50;;;12.08;72.96
76611;BME280;65503;48.534;9.062;2023-04-24T03:27:13;95948.22;;;12.10;73.06
76611;BME280;65503;48.534;9.062;2023-04-24T03:29:39;95949.00;;;12.11;72.88
76611;BME280;65503;48.534;9.062;2023-04-24T03:32:06;95958.75;;;12.10;73.10
76611;BME280;65503;48.534;9.062;2023-04-24T03:34:32;95960.84;;;12.13;72.67
76611;BME280;65503;48.534;9.062;2023-04-24T03:36:59;95953.47;;;11.90;73.35
76611;BME280;65503;48.534;9.062;2023-04-24T03:39:25;95947.13;;;11.86;73.18
76611;BME280;65503;48.534;9.062;2023-04-24T03:41:53;95954.53;;;11.84;73.56
76611;BME280;65503;48.534;9.062;2023-04-24T03:44:19;95947.66;;;11.93;73.27
76611;BME280;65503;48.534;9.062;2023-04-24T03:46:46;95944.00;;;11.94;73.25
76611;BME280;65503;48.534;9.062;2023-04-24T03:49:12;95937.13;;;11.83;73.59
76611;BME280;65503;48.534;9.062;2023-04-24T03:51:39;95942.41;;;11.83;73.09
76611;BME280;65503;48.534;9.062;2023-04-24T03:54:05;95946.56;;;11.69;73.04
76611;BME280;65503;48.534;9.062;2023-04-24T03:56:31;95947.09;;;11.66;72.73
76611;BME280;65503;48.534;9.062;2023-04-24T03:58:58;95946.53;;;11.58;72.50
76611;BME280;65503;48.534;9.062;2023-04-24T04:01:24;95944.94;;;11.57;72.20
76611;BME280;65503;48.534;9.062;2023-04-24T04:03:51;95951.78;;;11.48;72.77
76611;BME280;65503;48.534;9.062;2023-04-24T04:06:18;95946.78;;;11.47;72.55
76611;BME280;65503;48.534;9.062;2023-04-24T04:08:45;95957.06;;;11.48;72.59
76611;BME280;65503;48.534;9.062;2023-04-24T04:11:12;95952.28;;;11.45;73.05
76611;BME280;65503;48.534;9.062;2023-04-24T04:13:38;95959.72;;;11.53;73.04
76611;BME280;65503;48.534;9.062;2023-04-24T04:16:05;95960.75;;;11.57;73.26
76611;BME280;65503;48.534;9.062;2023-04-24T04:18:31;95966.03;;;11.57;73.42
76611;BME280;65503;48.534;9.062;2023-04-24T04:20:58;95975.81;;;11.67;73.14
76611;BME280;65503;48.534;9.062;2023-04-24T04:23:24;95974.50;;;11.70;72.89
76611;BME280;65503;48.534;9.062;2023-04-24T04:25:52;95980.56;;;11.70;73.28
76611;BME280;65503;48.534;9.062;2023-04-24T04:28:18;95979.56;;;11.76;73.13
76611;BME280;65503;48.534;9.062;2023-04-24T04:30:46;95990.88;;;11.77;73.21
76611;BME280;65503;48.534;9.062;2023-04-24T04:33:13;95997.16;;;11.71;73.57
76611;BME280;65503;48.534;9.062;2023-04-24T04:35:40;96014.03;;;11.70;73.87
76611;BME280;65503;48.534;9.062;2023-04-24T04:38:07;96007.16;;;11.64;74.44
76611;BME280;65503;48.534;9.062;2023-04-24T04:40:34;96018.44;;;11.49;74.59
76611;BME280;65503;48.534;9.062;2023-04-24T04:43:01;96022.19;;;10.59;77.12
76611;BME280;65503;48.534;9.062;2023-04-24T04:45:27;96023.53;;;10.66;78.34
76611;BME280;65503;48.534;9.062;2023-04-24T04:47:54;96029.28;;;11.05;77.27
76611;BME280;65503;48.534;9.062;2023-04-24T04:50:22;96031.25;;;11.25;76.20
76611;BME280;65503;48.534;9.062;2023-04-24T04:52:49;96036.13;;;11.58;74.87
76611;BME280;65503;48.534;9.062;2023-04-24T04:55:15;96048.78;;;11.62;74.29
76611;BME280;65503;48.534;9.062;2023-04-24T04:57:42;96044.97;;;11.32;74.70
76611;BME280;65503;48.534;9.062;2023-04-24T05:00:09;96052.31;;;11.25;75.30
76611;BME280;65503;48.534;9.062;2023-04-24T05:02:36;96060.38;;;11.03;75.69
76611;BME280;65503;48.534;9.062;2023-04-24T05:05:03;96056.53;;;11.21;75.54
76611;BME280;65503;48.534;9.062;2023-04-24T05:07:30;96053.91;;;11.26;75.14
76611;BME280;65503;48.534;9.062;2023-04-24T05:09:56;96049.22;;;11.33;75.12
76611;BME280;65503;48.534;9.062;2023-04-24T05:12:23;96059.47;;;11.40;74.81
76611;BME280;65503;48.534;9.062;2023-04-24T05:14:50;96067.66;;;11.33;74.93
76611;BME280;65503;48.534;9.062;2023-04-24T05:17:16;96074.94;;;11.16;74.48
76611;BME280;65503;48.534;9.062;2023-04-24T05:19:43;96075.47;;;11.23;73.86
76611;BME280;65503;48.534;9.062;2023-04-24T05:22:10;96082.66;;;10.91;73.46
76611;BME280;65503;48.534;9.062;2023-04-24T05:24:37;96090.56;;;10.96;73.48
76611;BME280;65503;48.534;9.062;2023-04-24T05:27:04;96103.78;;;11.01;73.27
76611;BME280;65503;48.534;9.062;2023-04-24T05:29:31;96103.72;;;10.91;73.44
76611;BME280;65503;48.534;9.062;2023-04-24T05:31:58;96111.16;;;10.99;73.46
76611;BME280;65503;48.534;9.062;2023-04-24T05:34:24;96109.50;;;10.88;72.88
76611;BME280;65503;48.534;9.062;2023-04-24T05:36:51;96108.19;;;10.90;72.71
76611;BME280;65503;48.534;9.062;2023-04-24T05:39:17;96110.84;;;10.95;73.32
76611;BME280;65503;48.534;9.062;2023-04-24T05:41:43;96117.47;;;11.03;72.67
76611;BME280;65503;48.534;9.062;2023-04-24T05:44:10;96114.22;;;10.91;72.83
76611;BME280;65503;48.534;9.062;2023-04-24T05:46:37;96127.50;;;11.06;73.07
76611;BME280;65503;48.534;9.062;2023-04-24T05:49:03;96129.59;;;11.04;73.12
76611;BME280;65503;48.534;9.062;2023-04-24T05:51:30;96126.81;;;11.21;72.21
76611;BME280;65503;48.534;9.062;2023-04-24T05:53:57;96135.59;;;10.99;71.75
76611;BME280;65503;48.534;9.062;2023-04-24T05:56:24;96133.88;;;11.10;71.83
76611;BME280;65503;48.534;9.062;2023-04-24T05:58:50;96142.28;;;11.12;71.95
76611;BME280;65503;48.534;9.062;2023-04-24T06:01:17;96146.84;;;11.22;72.07
76611;BME280;65503;48.534;9.062;2023-04-24T06:03:44;96145.53;;;11.24;71.30
76611;BME280;65503;48.534;9.062;2023-04-24T06:06:11;96140.25;;;11.24;71.60
76611;BME280;65503;48.534;9.062;2023-04-24T06:08:37;96143.53;;;11.41;71.02
76611;BME280;65503;48.534;9.062;2023-04-24T06:11:04;96146.75;;;11.53;71.34
76611;BME280;65503;48.534;9.062;2023-04-24T06:13:30;96141.03;;;11.62;71.79
76611;BME280;65503;48.534;9.062;2023-04-24T06:15:57;96143.34;;;12.05;70.14
76611;BME280;65503;48.534;9.062;2023-04-24T06:18:23;96156.63;;;12.35;68.97
76611;BME280;65503;48.534;9.062;2023-04-24T06:20:50;96154.50;;;12.32;68.49
76611;BME280;65503;48.534;9.062;2023-04-24T06:23:16;96151.34;;;12.35;69.30
76611;BME280;65503;48.534;9.062;2023-04-24T06:25:43;96139.94;;;12.25;68.76
76611;BME280;65503;48.534;9.062;2023-04-24T06:28:09;96128.91;;;12.53;67.70
76611;BME280;65503;48.534;9.062;2023-04-24T06:30:36;96130.78;;;12.88;67.53
76611;BME280;65503;48.534;9.062;2023-04-24T06:33:02;96130.00;;;13.23;65.42
76611;BME280;65503;48.534;9.062;2023-04-24T06:35:45;96136.56;;;13.51;65.05
76611;BME280;65503;48.534;9.062;2023-04-24T06:38:11;96140.75;;;13.67;64.55
76611;BME280;65503;48.534;9.062;2023-04-24T06:40:38;96146.59;;;13.64;63.76
76611;BME280;65503;48.534;9.062;2023-04-24T06:43:04;96152.34;;;13.81;65.40
76611;BME280;65503;48.534;9.062;2023-04-24T06:45:32;96152.28;;;13.96;62.74
76611;BME280;65503;48.534;9.062;2023-04-24T06:47:59;96146.13;;;13.37;62.28
76611;BME280;65503;48.534;9.062;2023-04-24T06:50:25;96147.66;;;13.63;63.48
76611;BME280;65503;48.534;9.062;2023-04-24T06:52:52;96150.31;;;14.27;63.02
76611;BME280;65503;48.534;9.062;2023-04-24T06:55:18;96149.88;;;14.59;61.84
76611;BME280;65503;48.534;9.062;2023-04-24T06:57:45;96140.34;;;14.63;59.54
76611;BME280;65503;48.534;9.062;2023-04-24T07:00:12;96138.47;;;14.64;58.10
76611;BME280;65503;48.534;9.062;2023-04-24T07:02:39;96139.59;;;15.25;57.96
76611;BME280;65503;48.534;9.062;2023-04-24T07:05:05;96138.69;;;15.35;56.51
76611;BME280;65503;48.534;9.062;2023-04-24T07:07:33;96137.72;;;14.97;57.47
76611;BME280;65503;48.534;9.062;2023-04-24T07:10:00;96142.19;;;14.63;59.74
76611;BME280;65503;48.534;9.062;2023-04-24T07:12:27;96152.69;;;14.29;57.94
76611;BME280;65503;48.534;9.062;2023-04-24T07:14:54;96160.13;;;13.42;60.41
76611;BME280;65503;48.534;9.062;2023-04-24T07:17:20;96166.22;;;13.33;62.06
76611;BME280;65503;48.534;9.062;2023-04-24T07:19:46;96174.13;;;13.43;60.73
76611;BME280;65503;48.534;9.062;2023-04-24T07:22:13;96186.00;;;14.30;60.71
76611;BME280;65503;48.534;9.062;2023-04-24T07:24:44;96194.22;;;14.82;57.39
76611;BME280;65503;48.534;9.062;2023-04-24T07:27:11;96191.44;;;13.99;54.88
76611;BME280;65503;48.534;9.062;2023-04-24T07:29:38;96187.97;;;14.04;54.31
76611;BME280;65503;48.534;9.062;2023-04-24T07:32:04;96184.13;;;13.71;54.26
76611;BME280;65503;48.534;9.062;2023-04-24T07:34:31;96180.47;;;13.42;52.95
76611;BME280;65503;48.534;9.062;2023-04-24T07:36:58;96189.25;;;14.22;53.50
76611;BME280;65503;48.534;9.062;2023-04-24T07:39:24;96195.16;;;15.02;51.83
76611;BME280;65503;48.534;9.062;2023-04-24T07:41:51;96199.75;;;14.42;50.92
76611;BME280;65503;48.534;9.062;2023-04-24T07:44:17;96205.78;;;13.83;53.15
76611;BME280;65503;48.534;9.062;2023-04-24T07:46:44;96204.00;;;13.18;53.49
76611;BME280;65503;48.534;9.062;2023-04-24T07:49:10;96211.94;;;13.38;52.62
76611;BME280;65503;48.534;9.062;2023-04-24T07:51:39;96207.34;;;12.63;53.18
76611;BME280;65503;48.534;9.062;2023-04-24T07:54:06;96209.03;;;13.19;52.87
76611;BME280;65503;48.534;9.062;2023-04-24T07:56:33;96222.75;;;13.52;51.54
76611;BME280;65503;48.534;9.062;2023-04-24T07:58:59;96220.88;;;13.07;50.97
76611;BME280;65503;48.534;9.062;2023-04-24T08:01:27;96225.38;;;13.21;51.38
76611;BME280;65503;48.534;9.062;2023-04-24T08:03:54;96212.66;;;13.69;48.82
76611;BME280;65503;48.534;9.062;2023-04-24T08:06:21;96229.19;;;14.20;49.36
76611;BME280;65503;48.534;9.062;2023-04-24T08:08:47;96230.09;;;15.04;46.04
76611;BME280;65503;48.534;9.062;2023-04-24T08:11:14;96236.13;;;14.11;47.26
76611;BME280;65503;48.534;9.062;2023-04-24T08:13:41;96238.63;;;13.42;47.78
76611;BME280;65503;48.534;9.062;2023-04-24T08:16:08;96225.84;;;12.93;48.83
76611;BME280;65503;48.534;9.062;2023-04-24T08:18:35;96234.91;;;13.12;49.18
76611;BME280;65503;48.534;9.062;2023-04-24T08:21:02;96240.19;;;13.12;48.64
76611;BME280;65503;48.534;9.062;2023-04-24T08:23:29;96256.06;;;13.53;47.98
76611;BME280;65503;48.534;9.062;2023-04-24T08:25:56;96244.88;;;12.80;47.92
76611;BME280;65503;48.534;9.062;2023-04-24T08:28:23;96250.50;;;13.19;47.46
76611;BME280;65503;48.534;9.062;2023-04-24T08:30:50;96269.91;;;14.34;46.20
76611;BME280;65503;48.534;9.062;2023-04-24T08:33:22;96260.09;;;14.50;44.00
76611;BME280;65503;48.534;9.062;2023-04-24T08:35:48;96255.94;;;15.22;42.93
76611;BME280;65503;48.534;9.062;2023-04-24T08:38:16;96257.47;;;15.96;42.28
76611;BME280;65503;48.534;9.062;2023-04-24T08:40:43;96243.56;;;15.80;41.15
76611;BME280;65503;48.534;9.062;2023-04-24T08:43:12;96257.84;;;15.50;41.07
76611;BME280;65503;48.534;9.062;2023-04-24T08:45:40;96244.06;;;16.11;39.79
76611;BME280;65503;48.534;9.062;2023-04-24T08:48:07;96255.78;;;15.47;42.03
76611;BME280;65503;48.534;9.062;2023-04-24T08:50:51;96249.88;;;15.60;40.26
76611;BME280;65503;48.534;9.062;2023-04-24T08:53:18;96256.94;;;16.89;37.78
76611;BME280;65503;48.534;9.062;2023-04-24T08:55:48;96253.25;;;16.42;37.50
76611;BME280;65503;48.534;9.062;2023-04-24T08:58:16;96274.97;;;15.97;39.07
76611;BME280;65503;48.534;9.062;2023-04-24T09:00:44;96276.34;;;15.65;39.30
76611;BME280;65503;48.534;9.062;2023-04-24T09:03:15;96280.84;;;13.97;43.20
76611;BME280;65503;48.534;9.062;2023-04-24T09:05:44;96282.59;;;15.02;42.53
76611;BME280;65503;48.534;9.062;2023-04-24T09:08:17;96287.59;;;16.10;40.11
76611;BME280;65503;48.534;9.062;2023-04-24T09:10:44;96278.13;;;15.36;40.40
76611;BME280;65503;48.534;9.062;2023-04-24T09:13:11;96284.78;;;16.25;41.14
76611;BME280;65503;48.534;9.062;2023-04-24T09:15:38;96278.75;;;16.86;37.50
76611;BME280;65503;48.534;9.062;2023-04-24T09:18:05;96293.59;;;16.44;38.87
76611;BME280;65503;48.534;9.062;2023-04-24T09:20:32;96295.03;;;16.61;39.35
76611;BME280;65503;48.534;9.062;2023-04-24T09:22:58;96301.44;;;17.02;39.19
76611;BME280;65503;48.534;9.062;2023-04-24T09:25:31;96301.59;;;18.27;36.59
76611;BME280;65503;48.534;9.062;2023-04-24T09:28:03;96294.75;;;17.23;36.94
76611;BME280;65503;48.534;9.062;2023-04-24T09:30:29;96301.63;;;15.87;39.58
76611;BME280;65503;48.534;9.062;2023-04-24T09:33:15;96298.13;;;14.74;43.48
76611;BME280;65503;48.534;9.062;2023-04-24T09:35:48;96311.91;;;14.66;42.54
76611;BME280;65503;48.534;9.062;2023-04-24T09:38:15;96305.94;;;14.15;44.38
76611;BME280;65503;48.534;9.062;2023-04-24T09:40:42;96305.13;;;14.25;44.58
76611;BME280;65503;48.534;9.062;2023-04-24T09:43:12;96322.59;;;14.21;44.45
76611;BME280;65503;48.534;9.062;2023-04-24T09:45:39;96327.28;;;14.59;42.95
76611;BME280;65503;48.534;9.062;2023-04-24T09:48:09;96331.47;;;14.75;42.73
76611;BME280;65503;48.534;9.062;2023-04-24T09:50:36;96337.06;;;15.23;41.53
76611;BME280;65503;48.534;9.062;2023-04-24T09:53:05;96323.16;;;14.23;41.95
76611;BME280;65503;48.534;9.062;2023-04-24T09:55:39;96328.47;;;13.92;43.45
76611;BME280;65503;48.534;9.062;2023-04-24T09:58:07;96332.44;;;13.95;42.71
76611;BME280;65503;48.534;9.062;2023-04-24T10:00:34;96329.81;;;13.95;43.06
76611;BME280;65503;48.534;9.062;2023-04-24T10:03:03;96325.81;;;13.57;42.97
76611;BME280;65503;48.534;9.062;2023-04-24T10:05:35;96344.31;;;14.02;42.24
76611;BME280;65503;48.534;9.062;2023-04-24T10:08:10;96326.00;;;14.36;40.67
76611;BME280;65503;48.534;9.062;2023-04-24T10:10:43;96325.59;;;14.83;39.92
76611;BME280;65503;48.534;9.062;2023-04-24T10:13:11;96320.72;;;15.89;38.83
76611;BME280;65503;48.534;9.062;2023-04-24T10:15:47;96324.56;;;16.30;36.15
76611;BME280;65503;48.534;9.062;2023-04-24T10:18:15;96321.22;;;15.13;38.48
76611;BME280;65503;48.534;9.062;2023-04-24T10:20:42;96310.56;;;15.23;39.00
76611;BME280;65503;48.534;9.062;2023-04-24T10:23:09;96327.81;;;14.61;40.22
76611;BME280;65503;48.534;9.062;2023-04-24T10:25:37;96329.38;;;14.67;40.04
76611;BME280;65503;48.534;9.062;2023-04-24T10:28:04;96343.34;;;15.37;39.54
76611;BME280;65503;48.534;9.062;2023-04-24T10:30:33;96341.91;;;14.41;39.63
76611;BME280;65503;48.534;9.062;2023-04-24T10:33:03;96351.84;;;14.85;38.84
76611;BME280;65503;48.534;9.062;2023-04-24T10:35:33;96348.22;;;15.20;38.74
76611;BME280;65503;48.534;9.062;2023-04-24T10:38:08;96365.66;;;15.31;39.28
76611;BME280;65503;48.534;9.062;2023-04-24T10:40:36;96364.84;;;15.75;38.51
76611;BME280;65503;48.534;9.062;2023-04-24T10:43:06;96365.72;;;15.65;38.50
76611;BME280;65503;48.534;9.062;2023-04-24T10:45:34;96368.13;;;15.61;40.16
76611;BME280;65503;48.534;9.062;2023-04-24T10:48:05;96377.22;;;15.45;39.82
76611;BME280;65503;48.534;9.062;2023-04-24T10:50:50;96373.44;;;15.12;40.89
76611;BME280;65503;48.534;9.062;2023-04-24T10:53:20;96369.13;;;14.67;42.28
76611;BME280;65503;48.534;9.062;2023-04-24T10:58:16;96385.59;;;14.39;43.04
76611;BME280;65503;48.534;9.062;2023-04-24T11:00:43;96376.47;;;13.08;45.92
76611;BME280;65503;48.534;9.062;2023-04-24T11:03:26;96383.81;;;12.96;45.82
76611;BME280;65503;48.534;9.062;2023-04-24T11:05:56;96392.91;;;13.15;45.92
76611;BME280;65503;48.534;9.062;2023-04-24T11:08:24;96384.78;;;14.48;43.21
76611;BME280;65503;48.534;9.062;2023-04-24T11:11:12;96375.00;;;14.29;43.01
76611;BME280;65503;48.534;9.062;2023-04-24T11:16:28;96397.22;;;14.43;42.27
76611;BME280;65503;48.534;9.062;2023-04-24T11:19:26;96389.81;;;14.45;42.97
76611;BME280;65503;48.534;9.062;2023-04-24T11:22:01;96404.63;;;14.61;43.84
76611;BME280;65503;48.534;9.062;2023-04-24T11:24:29;96393.44;;;14.84;42.86
76611;BME280;65503;48.534;9.062;2023-04-24T11:35:17;96413.63;;;13.79;43.37
76611;BME280;65503;48.534;9.062;2023-04-24T11:37:46;96407.00;;;12.84;45.64
76611;BME280;65503;48.534;9.062;2023-04-24T11:40:33;96427.16;;;13.10;46.93
76611;BME280;65503;48.534;9.062;2023-04-24T11:42:59;96425.44;;;12.79;47.52
76611;BME280;65503;48.534;9.062;2023-04-24T11:45:30;96419.59;;;12.72;46.46
76611;BME280;65503;48.534;9.062;2023-04-24T11:47:57;96423.88;;;13.45;45.22
76611;BME280;65503;48.534;9.062;2023-04-24T11:50:26;96432.41;;;14.08;43.89
76611;BME280;65503;48.534;9.062;2023-04-24T11:52:54;96429.50;;;14.30;43.38
76611;BME280;65503;48.534;9.062;2023-04-24T11:57:50;96432.16;;;14.04;43.16
76611;BME280;65503;48.534;9.062;2023-04-24T12:00:20;96436.38;;;14.61;42.20
76611;BME280;65503;48.534;9.062;2023-04-24T12:02:48;96436.34;;;14.81;41.85
76611;BME280;65503;48.534;9.062;2023-04-24T12:05:26;96436.91;;;14.58;42.00
76611;BME280;65503;48.534;9.062;2023-04-24T12:07:53;96441.63;;;14.81;41.90
76611;BME280;65503;48.534;9.062;2023-04-24T12:10:21;96447.81;;;13.13;45.48
76611;BME280;65503;48.534;9.062;2023-04-24T12:12:48;96446.16;;;13.02;47.38
76611;BME280;65503;48.534;9.062;2023-04-24T12:15:18;96450.44;;;12.24;47.09
76611;BME280;65503;48.534;9.062;2023-04-24T12:17:45;96457.22;;;12.15;47.41
76611;BME280;65503;48.534;9.062;2023-04-24T12:20:13;96454.59;;;12.15;47.18
76611;BME280;65503;48.534;9.062;2023-04-24T12:22:47;96447.06;;;12.02;48.08
76611;BME280;65503;48.534;9.062;2023-04-24T12:25:18;96466.38;;;12.08;48.96
76611;BME280;65503;48.534;9.062;2023-04-24T12:27:46;96464.53;;;12.40;48.27
76611;BME280;65503;48.534;9.062;2023-04-24T12:30:15;96451.66;;;12.49;47.31
76611;BME280;65503;48.534;9.062;2023-04-24T12:32:45;96465.50;;;11.97;47.97
76611;BME280;65503;48.534;9.062;2023-04-24T12:35:12;96461.88;;;12.35;48.05
76611;BME280;65503;48.534;9.062;2023-04-24T12:37:42;96471.88;;;12.01;48.71
76611;BME280;65503;48.534;9.062;2023-04-24T12:40:12;96467.94;;;12.35;48.28
76611;BME280;65503;48.534;9.062;2023-04-24T12:42:44;96455.50;;;13.15;46.85
76611;BME280;65503;48.534;9.062;2023-04-24T12:45:12;96459.59;;;13.58;45.05
76611;BME280;65503;48.534;9.062;2023-04-24T12:47:39;96458.00;;;13.57;44.94
76611;BME280;65503;48.534;9.062;2023-04-24T12:50:11;96456.13;;;13.47;45.32
76611;BME280;65503;48.534;9.062;2023-04-24T12:52:38;96449.03;;;13.58;47.07
76611;BME280;65503;48.534;9.062;2023-04-24T12:55:06;96448.25;;;13.00;48.12
76611;BME280;65503;48.534;9.062;2023-04-24T12:57:37;96446.94;;;13.70;46.29
76611;BME280;65503;48.534;9.062;2023-04-24T13:00:06;96453.28;;;13.84;45.27
76611;BME280;65503;48.534;9.062;2023-04-24T13:02:33;96445.34;;;13.69;45.44
76611;BME280;65503;48.534;9.062;2023-04-24T13:05:00;96439.56;;;14.02;45.15
76611;BME280;65503;48.534;9.062;2023-04-24T13:07:27;96450.69;;;14.20;44.22
76611;BME280;65503;48.534;9.062;2023-04-24T13:09:55;96447.00;;;14.00;44.28
76611;BME280;65503;48.534;9.062;2023-04-24T13:12:22;96453.34;;;14.04;44.58
76611;BME280;65503;48.534;9.062;2023-04-24T13:14:50;96449.63;;;14.26;44.06
76611;BME280;65503;48.534;9.062;2023-04-24T13:17:16;96448.81;;;14.35;43.50
76611;BME280;65503;48.534;9.062;2023-04-24T13:19:44;96449.63;;;14.41;43.10